createdAt,value
2022-12-18T00:00:49.585Z,22.38
2022-12-18T00:01:51.405Z,32.05
2022-12-18T00:02:53.219Z,27.35
2022-12-18T00:03:56.793Z,29.90
2022-12-18T00:05:01.423Z,24.33
2022-12-18T00:06:03.571Z,28.80
2022-12-18T00:07:05.281Z,32.92
2022-12-18T00:08:09.369Z,23.05
2022-12-18T00:09:11.534Z,19.77
2022-12-18T00:10:15.251Z,30.70
2022-12-18T00:11:19.517Z,23.88
2022-12-18T00:12:21.219Z,23.10
2022-12-18T00:13:22.958Z,29.88
2022-12-18T00:14:24.754Z,26.95
2022-12-18T00:15:26.472Z,30.30
2022-12-18T00:16:29.829Z,29.30
2022-12-18T00:17:31.601Z,26.33
2022-12-18T00:18:33.811Z,32.78
2022-12-18T00:19:35.530Z,29.13
2022-12-18T00:20:40.775Z,27.73
2022-12-18T00:21:44.168Z,29.00
2022-12-18T00:22:45.867Z,27.95
2022-12-18T00:23:49.145Z,26.40
2022-12-18T00:24:50.851Z,20.40
2022-12-18T00:25:52.723Z,25.98
2022-12-18T00:26:54.509Z,24.45
2022-12-18T00:27:56.259Z,19.90
2022-12-18T00:29:05.582Z,23.07
2022-12-18T00:30:08.027Z,30.75
2022-12-18T00:31:12.752Z,23.40
2022-12-18T00:32:14.557Z,21.33
2022-12-18T00:33:16.277Z,28.30
2022-12-18T00:34:18.037Z,21.67
2022-12-18T00:35:19.748Z,28.98
2022-12-18T00:36:23.892Z,24.67
2022-12-18T00:37:25.637Z,25.92
2022-12-18T00:38:27.380Z,25.23
2022-12-18T00:39:29.164Z,28.25
2022-12-18T00:40:30.904Z,23.90
2022-12-18T00:41:51.434Z,24.30
2022-12-18T00:42:59.236Z,27.30
2022-12-18T00:44:01.235Z,26.70
2022-12-18T00:45:06.425Z,32.90
2022-12-18T00:46:10.909Z,27.67
2022-12-18T00:47:12.717Z,26.67
2022-12-18T00:48:14.488Z,27.73
2022-12-18T00:49:20.752Z,24.27
2022-12-18T00:50:24.907Z,25.77
2022-12-18T00:51:27.530Z,25.38
2022-12-18T00:52:29.266Z,27.17
2022-12-18T00:53:31.004Z,24.65
2022-12-18T00:54:32.751Z,28.63
2022-12-18T00:55:35.351Z,24.38
2022-12-18T00:56:48.038Z,23.48
2022-12-18T00:57:53.210Z,22.70
2022-12-18T00:58:55.009Z,23.03
2022-12-18T00:59:56.736Z,27.38
2022-12-18T01:00:58.491Z,27.08
2022-12-18T01:02:00.391Z,24.25
2022-12-18T01:03:02.329Z,25.80
2022-12-18T01:04:04.344Z,31.35
2022-12-18T01:05:06.595Z,23.35
2022-12-18T01:06:10.205Z,32.42
2022-12-18T01:07:11.922Z,25.58
2022-12-18T01:08:13.626Z,26.83
2022-12-18T01:09:15.595Z,23.38
2022-12-18T01:10:17.335Z,25.83
2022-12-18T01:11:21.051Z,20.27
2022-12-18T01:12:22.788Z,23.80
2022-12-18T01:13:24.656Z,20.50
2022-12-18T01:14:26.387Z,18.63
2022-12-18T01:15:28.170Z,18.40
2022-12-18T01:16:29.989Z,21.27
2022-12-18T01:17:32.045Z,20.88
2022-12-18T01:18:33.872Z,22.15
2022-12-18T01:19:35.708Z,25.35
2022-12-18T01:20:39.169Z,24.25
2022-12-18T01:21:40.953Z,21.05
2022-12-18T01:22:42.731Z,20.88
2022-12-18T01:23:45.981Z,21.88
2022-12-18T01:24:47.723Z,24.30
2022-12-18T01:25:49.778Z,20.67
2022-12-18T01:26:51.524Z,21.75
2022-12-18T01:27:53.338Z,24.77
2022-12-18T01:28:59.009Z,24.27
2022-12-18T01:30:00.846Z,28.60
2022-12-18T01:31:12.454Z,23.92
2022-12-18T01:32:14.225Z,23.73
2022-12-18T01:33:16.048Z,27.97
2022-12-18T01:34:17.820Z,28.48
2022-12-18T01:35:19.540Z,26.73
2022-12-18T01:36:27.190Z,26.60
2022-12-18T01:37:29.019Z,25.45
2022-12-18T01:38:30.838Z,27.52
2022-12-18T01:39:35.751Z,25.00
2022-12-18T01:40:37.848Z,21.10
2022-12-18T01:42:09.038Z,21.77
2022-12-18T01:43:10.758Z,17.67
2022-12-18T01:44:50.173Z,23.63
2022-12-18T01:45:51.993Z,18.10
2022-12-18T01:46:53.746Z,15.88
2022-12-18T01:48:05.546Z,20.75
2022-12-18T01:49:07.372Z,14.48
2022-12-18T01:50:11.877Z,16.10
2022-12-18T01:51:13.915Z,14.45
2022-12-18T01:52:16.645Z,22.67
2022-12-18T01:53:22.307Z,18.90
2022-12-18T01:54:24.059Z,17.50
2022-12-18T01:55:29.890Z,25.77
2022-12-18T01:56:31.873Z,17.30
2022-12-18T01:57:34.127Z,25.42
2022-12-18T01:59:00.925Z,16.67
2022-12-18T02:00:07.798Z,19.73
2022-12-18T02:01:10.175Z,21.85
2022-12-18T02:02:12.865Z,18.23
2022-12-18T02:03:14.832Z,21.38
2022-12-18T02:04:28.857Z,14.35
2022-12-18T02:05:38.113Z,18.17
2022-12-18T02:06:42.644Z,17.75
2022-12-18T02:07:44.865Z,21.23
2022-12-18T02:08:46.626Z,20.30
2022-12-18T02:09:57.416Z,20.60
2022-12-18T02:11:11.630Z,17.33
2022-12-18T02:12:24.294Z,19.23
2022-12-18T02:13:59.805Z,21.23
2022-12-18T02:15:36.480Z,24.00
2022-12-18T02:16:52.328Z,18.08
2022-12-18T02:18:04.476Z,18.75
2022-12-18T02:19:20.659Z,15.93
2022-12-18T02:20:40.963Z,21.65
2022-12-18T02:21:54.802Z,19.85
2022-12-18T02:23:17.659Z,15.38
2022-12-18T02:25:17.153Z,17.58
2022-12-18T02:26:27.260Z,17.33
2022-12-18T02:27:33.409Z,19.27
2022-12-18T02:28:41.036Z,18.13
2022-12-18T02:29:54.302Z,21.13
2022-12-18T02:31:03.795Z,19.98
2022-12-18T02:32:11.535Z,23.92
2022-12-18T02:33:15.484Z,28.80
2022-12-18T02:34:19.180Z,24.65
2022-12-18T02:35:30.834Z,29.10
2022-12-18T02:36:34.728Z,25.75
2022-12-18T02:37:39.193Z,20.80
2022-12-18T02:38:42.541Z,25.80
2022-12-18T02:39:48.380Z,27.97
2022-12-18T02:40:51.894Z,23.25
2022-12-18T02:41:53.882Z,29.10
2022-12-18T02:42:56.169Z,24.88
2022-12-18T02:44:01.208Z,25.75
2022-12-18T02:45:03.063Z,17.77
2022-12-18T02:46:46.484Z,19.63
2022-12-18T02:47:50.638Z,22.63
2022-12-18T02:48:57.686Z,28.67
2022-12-18T02:50:23.572Z,26.73
2022-12-18T02:51:34.775Z,31.70
2022-12-18T02:53:10.523Z,36.10
2022-12-18T02:54:31.680Z,32.17
2022-12-18T02:55:48.468Z,23.67
2022-12-18T02:56:56.799Z,28.38
2022-12-18T02:58:15.120Z,22.38
2022-12-18T02:59:23.304Z,25.02
2022-12-18T03:00:35.476Z,34.60
2022-12-18T03:01:51.132Z,47.00
2022-12-18T03:03:02.782Z,40.85
2022-12-18T03:04:16.131Z,43.60
2022-12-18T03:05:20.129Z,36.95
2022-12-18T03:06:26.459Z,45.42
2022-12-18T03:08:00.292Z,51.63
2022-12-18T03:09:11.060Z,34.42
2022-12-18T03:10:17.554Z,40.60
2022-12-18T03:11:45.098Z,44.50
2022-12-18T03:13:00.794Z,30.23
2022-12-18T03:14:05.028Z,29.55
2022-12-18T03:15:17.203Z,28.75
2022-12-18T03:16:25.781Z,28.95
2022-12-18T03:17:30.562Z,24.48
2022-12-18T03:18:38.413Z,37.08
2022-12-18T03:19:41.859Z,61.97
2022-12-18T03:20:45.427Z,50.22
2022-12-18T03:21:50.530Z,50.23
2022-12-18T03:22:57.344Z,40.08
2022-12-18T03:23:59.624Z,34.78
2022-12-18T03:25:06.218Z,32.63
2022-12-18T03:26:11.736Z,22.17
2022-12-18T03:27:18.395Z,17.90
2022-12-18T03:28:24.063Z,18.80
2022-12-18T03:29:34.889Z,16.42
2022-12-18T03:30:40.428Z,16.70
2022-12-18T03:31:46.455Z,15.73
2022-12-18T03:32:50.963Z,15.65
2022-12-18T03:33:59.733Z,13.30
2022-12-18T03:35:05.292Z,15.77
2022-12-18T03:36:08.990Z,16.33
2022-12-18T03:37:13.770Z,23.55
2022-12-18T03:38:15.678Z,20.30
2022-12-18T03:39:17.484Z,17.90
2022-12-18T03:40:23.445Z,15.25
2022-12-18T03:41:42.534Z,17.27
2022-12-18T03:42:52.922Z,15.82
2022-12-18T03:43:54.614Z,18.00
2022-12-18T03:45:00.787Z,15.50
2022-12-18T03:46:35.806Z,13.23
2022-12-18T03:47:43.065Z,13.85
2022-12-18T03:48:58.309Z,15.52
2022-12-18T03:50:21.516Z,11.27
2022-12-18T03:51:37.347Z,11.02
2022-12-18T03:52:40.669Z,11.27
2022-12-18T03:53:54.968Z,12.70
2022-12-18T03:54:58.374Z,10.60
2022-12-18T03:56:02.554Z,9.93
2022-12-18T03:57:13.849Z,13.45
2022-12-18T03:58:20.577Z,12.07
2022-12-18T03:59:24.682Z,11.40
2022-12-18T04:00:26.696Z,11.77
2022-12-18T04:01:41.838Z,15.27
2022-12-18T04:02:49.189Z,14.13
2022-12-18T04:03:51.805Z,10.88
2022-12-18T04:04:57.291Z,13.40
2022-12-18T04:06:01.062Z,11.95
2022-12-18T04:07:04.118Z,10.45
2022-12-18T04:08:06.296Z,9.65
2022-12-18T04:09:08.589Z,13.15
2022-12-18T04:10:14.733Z,10.73
2022-12-18T04:11:16.934Z,13.32
2022-12-18T04:12:18.666Z,11.32
2022-12-18T04:13:30.659Z,10.48
2022-12-18T04:14:36.504Z,12.07
2022-12-18T04:15:39.140Z,13.15
2022-12-18T04:16:40.931Z,10.48
2022-12-18T04:17:49.587Z,7.72
2022-12-18T04:18:51.512Z,10.70
2022-12-18T04:19:53.634Z,10.32
2022-12-18T04:20:55.519Z,14.88
2022-12-18T04:21:57.544Z,10.35
2022-12-18T04:22:59.254Z,15.00
2022-12-18T04:24:01.021Z,10.95
2022-12-18T04:25:02.770Z,11.27
2022-12-18T04:26:04.623Z,11.50
2022-12-18T04:27:06.774Z,9.73
2022-12-18T04:28:08.779Z,10.27
2022-12-18T04:29:10.539Z,11.15
2022-12-18T04:30:12.665Z,8.60
2022-12-18T04:31:14.839Z,10.73
2022-12-18T04:32:16.631Z,9.75
2022-12-18T04:33:18.536Z,11.07
2022-12-18T04:34:20.250Z,7.90
2022-12-18T04:35:22.011Z,10.68
2022-12-18T04:36:23.842Z,12.40
2022-12-18T04:37:25.550Z,12.30
2022-12-18T04:38:27.296Z,14.13
2022-12-18T04:39:29.019Z,10.60
2022-12-18T04:40:30.723Z,11.75
2022-12-18T04:41:32.459Z,12.75
2022-12-18T04:42:34.236Z,11.02
2022-12-18T04:43:36.276Z,11.70
2022-12-18T04:44:38.153Z,10.68
2022-12-18T04:45:39.866Z,9.35
2022-12-18T04:46:42.607Z,12.20
2022-12-18T04:47:44.680Z,9.38
2022-12-18T04:48:47.837Z,9.88
2022-12-18T04:49:49.602Z,11.30
2022-12-18T04:50:51.326Z,9.35
2022-12-18T04:51:53.925Z,9.30
2022-12-18T04:52:56.087Z,9.85
2022-12-18T04:53:57.790Z,9.90
2022-12-18T04:54:59.535Z,11.20
2022-12-18T04:56:14.066Z,8.65
2022-12-18T04:57:15.854Z,9.82
2022-12-18T04:58:17.804Z,10.80
2022-12-18T04:59:19.579Z,10.57
2022-12-18T05:00:21.761Z,13.65
2022-12-18T05:01:23.614Z,14.13
2022-12-18T05:02:25.519Z,17.40
2022-12-18T05:03:27.513Z,13.65
2022-12-18T05:04:29.262Z,11.43
2022-12-18T05:05:31.042Z,8.98
2022-12-18T05:06:32.806Z,13.55
2022-12-18T05:07:34.638Z,18.70
2022-12-18T05:08:36.466Z,13.85
2022-12-18T05:09:38.184Z,16.15
2022-12-18T05:10:39.916Z,12.50
2022-12-18T05:11:41.639Z,11.53
2022-12-18T05:13:02.141Z,17.73
2022-12-18T05:14:04.204Z,11.25
2022-12-18T05:15:06.565Z,13.30
2022-12-18T05:16:08.875Z,15.05
2022-12-18T05:17:10.683Z,9.65
2022-12-18T05:18:12.434Z,10.73
2022-12-18T05:19:14.175Z,11.13
2022-12-18T05:20:16.130Z,10.35
2022-12-18T05:21:17.967Z,12.68
2022-12-18T05:22:19.701Z,10.40
2022-12-18T05:23:23.067Z,10.02
2022-12-18T05:24:24.960Z,11.63
2022-12-18T05:25:26.672Z,11.95
2022-12-18T05:26:28.435Z,12.80
2022-12-18T05:27:30.132Z,11.18
2022-12-18T05:28:33.782Z,11.57
2022-12-18T05:29:35.485Z,11.70
2022-12-18T05:30:37.207Z,15.25
2022-12-18T05:31:40.090Z,12.60
2022-12-18T05:32:42.222Z,13.45
2022-12-18T05:33:44.245Z,16.40
2022-12-18T05:34:46.181Z,14.07
2022-12-18T05:36:05.069Z,10.25
2022-12-18T05:37:06.817Z,9.13
2022-12-18T05:38:08.740Z,8.63
2022-12-18T05:39:10.663Z,9.45
2022-12-18T05:40:13.175Z,11.40
2022-12-18T05:41:14.992Z,12.30
2022-12-18T05:42:16.725Z,7.88
2022-12-18T05:43:21.400Z,10.10
2022-12-18T05:44:23.589Z,9.93
2022-12-18T05:45:25.328Z,10.38
2022-12-18T05:46:27.284Z,7.65
2022-12-18T05:47:29.764Z,9.57
2022-12-18T05:48:31.498Z,10.20
2022-12-18T05:49:33.217Z,11.07
2022-12-18T05:50:36.870Z,10.02
2022-12-18T05:51:38.674Z,14.70
2022-12-18T05:52:41.080Z,10.02
2022-12-18T05:53:43.792Z,11.93
2022-12-18T05:54:45.715Z,11.63
2022-12-18T05:55:48.334Z,11.07
2022-12-18T05:56:50.065Z,12.65
2022-12-18T05:57:51.797Z,12.32
2022-12-18T05:58:55.013Z,13.73
2022-12-18T05:59:56.811Z,14.32
2022-12-18T06:00:59.160Z,12.13
2022-12-18T06:02:00.994Z,12.88
2022-12-18T06:03:03.991Z,12.80
2022-12-18T06:04:05.941Z,14.23
2022-12-18T06:05:08.700Z,12.35
2022-12-18T06:06:19.466Z,19.60
2022-12-18T06:07:21.240Z,18.57
2022-12-18T06:08:23.080Z,21.52
2022-12-18T06:09:25.021Z,29.73
2022-12-18T06:10:26.759Z,31.00
2022-12-18T06:11:28.660Z,23.25
2022-12-18T06:12:30.499Z,34.72
2022-12-18T06:13:32.205Z,33.73
2022-12-18T06:14:33.913Z,38.20
2022-12-18T06:15:38.270Z,32.65
2022-12-18T06:16:40.063Z,36.92
2022-12-18T06:17:41.774Z,33.47
2022-12-18T06:18:43.511Z,27.52
2022-12-18T06:19:45.268Z,19.20
2022-12-18T06:20:54.861Z,18.58
2022-12-18T06:21:58.717Z,14.10
2022-12-18T06:23:00.807Z,12.73
2022-12-18T06:24:02.512Z,12.68
2022-12-18T06:25:05.379Z,11.50
2022-12-18T06:26:12.357Z,13.13
2022-12-18T06:27:14.142Z,9.90
2022-12-18T06:28:16.229Z,11.25
2022-12-18T06:29:17.973Z,11.10
2022-12-18T06:30:19.775Z,12.27
2022-12-18T06:31:21.570Z,12.97
2022-12-18T06:32:23.494Z,12.00
2022-12-18T06:33:29.070Z,12.95
2022-12-18T06:34:34.203Z,12.98
2022-12-18T06:35:36.336Z,16.25
2022-12-18T06:36:38.110Z,11.93
2022-12-18T06:37:40.758Z,10.20
2022-12-18T06:38:43.922Z,15.23
2022-12-18T06:39:45.780Z,12.43
2022-12-18T06:40:47.494Z,12.45
2022-12-18T06:41:49.258Z,11.38
2022-12-18T06:42:51.148Z,13.47
2022-12-18T06:43:56.836Z,13.43
2022-12-18T06:45:01.241Z,18.48
2022-12-18T06:46:04.708Z,14.70
2022-12-18T06:47:06.537Z,15.48
2022-12-18T06:48:08.280Z,12.77
2022-12-18T06:49:10.513Z,16.20
2022-12-18T06:50:13.327Z,16.73
2022-12-18T06:51:18.103Z,12.95
2022-12-18T06:52:19.860Z,12.57
2022-12-18T06:53:21.656Z,14.85
2022-12-18T06:54:23.433Z,12.05
2022-12-18T06:55:25.815Z,11.30
2022-12-18T06:56:27.773Z,11.73
2022-12-18T06:57:29.738Z,11.57
2022-12-18T06:58:31.549Z,10.40
2022-12-18T06:59:33.327Z,10.82
2022-12-18T07:00:35.268Z,14.07
2022-12-18T07:01:37.258Z,12.88
2022-12-18T07:02:39.213Z,12.30
2022-12-18T07:03:43.174Z,10.48
2022-12-18T07:04:45.323Z,9.60
2022-12-18T07:05:47.212Z,8.68
2022-12-18T07:06:49.012Z,9.38
2022-12-18T07:07:50.745Z,12.35
2022-12-18T07:08:53.830Z,13.37
2022-12-18T07:09:55.568Z,11.93
2022-12-18T07:10:57.304Z,14.20
2022-12-18T07:11:59.091Z,14.43
2022-12-18T07:13:01.157Z,18.90
2022-12-18T07:14:03.013Z,11.43
2022-12-18T07:15:05.395Z,15.47
2022-12-18T07:16:18.492Z,19.13
2022-12-18T07:17:22.761Z,13.65
2022-12-18T07:18:24.496Z,15.98
2022-12-18T07:19:26.331Z,15.20
2022-12-18T07:20:28.131Z,15.00
2022-12-18T07:21:29.938Z,14.80
2022-12-18T07:22:31.902Z,19.65
2022-12-18T07:23:35.449Z,22.77
2022-12-18T07:24:37.613Z,26.92
2022-12-18T07:25:40.426Z,29.23
2022-12-18T07:26:42.188Z,19.33
2022-12-18T07:27:43.937Z,26.55
2022-12-18T07:28:45.923Z,23.38
2022-12-18T07:29:47.683Z,17.08
2022-12-18T07:30:49.401Z,18.55
2022-12-18T07:31:51.176Z,20.77
2022-12-18T07:32:52.933Z,14.60
2022-12-18T07:33:54.973Z,15.32
2022-12-18T07:34:56.785Z,15.65
2022-12-18T07:36:04.538Z,15.43
2022-12-18T07:37:06.289Z,15.93
2022-12-18T07:38:07.984Z,13.67
2022-12-18T07:39:09.732Z,12.02
2022-12-18T07:40:12.268Z,14.93
2022-12-18T07:41:15.134Z,13.57
2022-12-18T07:42:32.120Z,11.65
2022-12-18T07:43:34.854Z,23.20
2022-12-18T07:44:37.293Z,14.47
2022-12-18T07:45:39.579Z,16.75
2022-12-18T07:46:41.407Z,13.85
2022-12-18T07:47:43.189Z,14.98
2022-12-18T07:48:46.193Z,13.85
2022-12-18T07:49:51.406Z,14.10
2022-12-18T07:50:54.173Z,12.63
2022-12-18T07:51:57.269Z,14.13
2022-12-18T07:52:58.995Z,15.60
2022-12-18T07:54:00.760Z,19.65
2022-12-18T07:55:03.990Z,17.85
2022-12-18T07:58:51.423Z,11.98
2022-12-18T07:59:53.210Z,10.48
2022-12-18T08:00:55.010Z,11.32
2022-12-18T08:01:57.009Z,13.87
2022-12-18T08:02:59.020Z,11.98
2022-12-18T08:04:00.923Z,13.90
2022-12-18T08:05:02.770Z,14.95
2022-12-18T08:06:06.464Z,13.65
2022-12-18T08:07:08.209Z,14.77
2022-12-18T08:08:10.165Z,13.40
2022-12-18T08:09:13.113Z,8.73
2022-12-18T08:10:14.916Z,16.45
2022-12-18T08:11:16.676Z,16.30
2022-12-18T08:12:18.429Z,16.42
2022-12-18T08:13:20.182Z,16.38
2022-12-18T08:14:21.942Z,12.40
2022-12-18T08:15:23.674Z,17.02
2022-12-18T08:16:25.940Z,16.23
2022-12-18T08:17:27.736Z,14.98
2022-12-18T08:18:29.756Z,16.02
2022-12-18T08:19:31.560Z,15.60
2022-12-18T08:20:33.384Z,13.80
2022-12-18T08:21:35.084Z,15.13
2022-12-18T08:22:40.021Z,16.00
2022-12-18T08:23:43.534Z,14.43
2022-12-18T08:24:46.259Z,17.67
2022-12-18T08:25:48.181Z,13.50
2022-12-18T08:27:06.814Z,24.03
2022-12-18T08:28:11.958Z,18.90
2022-12-18T08:29:18.560Z,14.68
2022-12-18T08:30:23.264Z,15.80
2022-12-18T08:31:26.493Z,17.65
2022-12-18T08:32:29.240Z,20.15
2022-12-18T08:33:31.177Z,18.40
2022-12-18T08:34:32.951Z,22.45
2022-12-18T08:35:44.055Z,21.77
2022-12-18T08:36:47.434Z,22.10
2022-12-18T08:37:49.192Z,24.00
2022-12-18T08:38:50.943Z,16.90
2022-12-18T08:39:52.873Z,25.73
2022-12-18T08:41:02.469Z,16.77
2022-12-18T08:42:22.927Z,23.92
2022-12-18T08:43:43.439Z,15.57
2022-12-18T08:44:45.338Z,18.75
2022-12-18T08:45:47.131Z,23.10
2022-12-18T08:46:48.950Z,30.55
2022-12-18T08:47:50.687Z,32.40
2022-12-18T08:48:53.831Z,22.10
2022-12-18T08:49:55.759Z,17.27
2022-12-18T08:51:00.981Z,21.95
2022-12-18T08:52:03.823Z,24.85
2022-12-18T08:53:05.668Z,24.02
2022-12-18T08:54:07.934Z,26.03
2022-12-18T08:55:10.435Z,23.15
2022-12-18T08:56:13.320Z,25.08
2022-12-18T08:57:15.256Z,22.52
2022-12-18T08:58:17.075Z,22.00
2022-12-18T08:59:20.160Z,23.83
2022-12-18T09:00:22.789Z,20.13
2022-12-18T09:01:24.941Z,19.03
2022-12-18T09:02:26.993Z,21.85
2022-12-18T09:03:29.221Z,22.63
2022-12-18T09:04:31.041Z,26.02
2022-12-18T09:05:32.770Z,41.08
2022-12-18T09:06:34.531Z,33.33
2022-12-18T09:07:36.242Z,28.38
2022-12-18T09:08:38.362Z,23.93
2022-12-18T09:09:40.241Z,22.33
2022-12-18T09:10:46.644Z,19.33
2022-12-18T09:11:48.405Z,25.52
2022-12-18T09:12:50.210Z,20.83
2022-12-18T09:13:53.791Z,20.35
2022-12-18T09:14:55.535Z,20.60
2022-12-18T09:15:57.385Z,18.85
2022-12-18T09:16:59.313Z,21.33
2022-12-18T09:18:01.061Z,21.08
2022-12-18T09:19:05.263Z,23.42
2022-12-18T09:20:07.947Z,20.20
2022-12-18T09:21:14.783Z,21.05
2022-12-18T09:22:16.607Z,19.48
2022-12-18T09:23:18.411Z,26.30
2022-12-18T09:24:20.221Z,20.73
2022-12-18T09:25:21.930Z,27.67
2022-12-18T09:26:25.595Z,21.27
2022-12-18T09:27:27.375Z,23.45
2022-12-18T09:28:29.377Z,25.50
2022-12-18T09:29:31.224Z,22.30
2022-12-18T09:30:35.026Z,26.33
2022-12-18T09:31:39.403Z,20.63
2022-12-18T09:32:41.133Z,21.77
2022-12-18T09:33:42.943Z,28.17
2022-12-18T09:34:45.085Z,23.38
2022-12-18T09:35:47.199Z,23.58
2022-12-18T09:36:49.396Z,27.75
2022-12-18T09:37:51.630Z,22.98
2022-12-18T09:38:54.148Z,23.50
2022-12-18T09:39:55.959Z,23.98
2022-12-18T09:41:04.214Z,25.10
2022-12-18T09:42:07.498Z,25.05
2022-12-18T09:43:24.150Z,28.38
2022-12-18T09:44:45.710Z,26.45
2022-12-18T09:45:56.112Z,26.25
2022-12-18T09:47:18.953Z,29.95
2022-12-18T09:48:26.998Z,21.48
2022-12-18T09:49:32.188Z,26.05
2022-12-18T09:50:40.289Z,26.55
2022-12-18T09:51:58.504Z,28.60
2022-12-18T09:53:06.819Z,26.38
2022-12-18T09:54:39.536Z,23.97
2022-12-18T09:55:43.959Z,26.90
2022-12-18T09:56:46.364Z,30.10
2022-12-18T09:57:54.258Z,28.05
2022-12-18T09:59:01.235Z,23.92
2022-12-18T10:00:23.499Z,31.48
2022-12-18T10:01:34.029Z,25.35
2022-12-18T10:02:41.001Z,31.08
2022-12-18T10:03:42.849Z,32.85
2022-12-18T10:04:49.210Z,24.65
2022-12-18T10:06:07.979Z,28.73
2022-12-18T10:07:23.755Z,30.13
2022-12-18T10:08:50.046Z,26.25
2022-12-18T10:10:15.654Z,24.73
2022-12-18T10:11:47.330Z,28.88
2022-12-18T10:13:04.296Z,24.90
2022-12-18T10:14:27.982Z,25.77
2022-12-18T10:15:54.474Z,25.50
2022-12-18T10:17:02.533Z,29.75
2022-12-18T10:18:43.793Z,25.67
2022-12-18T10:19:58.968Z,27.30
2022-12-18T10:21:16.629Z,28.08
2022-12-18T10:22:57.869Z,23.15
2022-12-18T10:24:25.806Z,23.40
2022-12-18T10:25:43.103Z,24.67
2022-12-18T10:26:45.559Z,34.10
2022-12-18T10:27:47.875Z,27.13
2022-12-18T10:28:49.653Z,30.23
2022-12-18T10:29:52.754Z,30.98
2022-12-18T10:30:54.624Z,36.38
2022-12-18T10:31:56.431Z,32.83
2022-12-18T10:33:02.866Z,30.25
2022-12-18T10:34:04.584Z,27.15
2022-12-18T10:35:15.988Z,32.42
2022-12-18T10:36:17.763Z,31.40
2022-12-18T10:37:22.953Z,28.25
2022-12-18T10:38:34.337Z,30.10
2022-12-18T10:39:36.076Z,29.98
2022-12-18T10:40:55.772Z,29.80
2022-12-18T10:42:19.852Z,35.35
2022-12-18T10:43:31.023Z,27.87
2022-12-18T10:44:32.745Z,28.45
2022-12-18T10:45:34.542Z,29.58
2022-12-18T10:46:36.363Z,30.90
2022-12-18T10:47:44.452Z,31.70
2022-12-18T10:48:49.489Z,31.00
2022-12-18T10:49:53.736Z,31.40
2022-12-18T10:51:12.686Z,27.35
2022-12-18T10:52:18.121Z,23.95
2022-12-18T10:53:31.570Z,28.98
2022-12-18T10:54:34.906Z,25.10
2022-12-18T10:55:45.117Z,29.77
2022-12-18T10:56:47.096Z,20.48
2022-12-18T10:57:48.895Z,32.67
2022-12-18T10:58:59.787Z,29.63
2022-12-18T11:00:24.314Z,24.92
2022-12-18T11:01:26.296Z,27.10
2022-12-18T11:02:39.553Z,30.00
2022-12-18T11:03:51.572Z,26.30
2022-12-18T11:04:54.587Z,26.80
2022-12-18T11:06:05.227Z,24.67
2022-12-18T11:07:09.166Z,22.90
2022-12-18T11:08:23.773Z,26.67
2022-12-18T11:09:32.538Z,28.08
2022-12-18T11:10:38.148Z,25.77
2022-12-18T11:11:39.899Z,25.48
2022-12-18T11:12:41.662Z,23.25
2022-12-18T11:14:18.826Z,28.23
2022-12-18T11:15:28.418Z,23.13
2022-12-18T11:16:36.902Z,28.50
2022-12-18T11:17:39.239Z,26.87
2022-12-18T11:18:41.192Z,27.98
2022-12-18T11:19:43.157Z,30.67
2022-12-18T11:20:56.968Z,30.63
2022-12-18T11:22:01.563Z,26.38
2022-12-18T11:23:13.829Z,32.08
2022-12-18T11:24:23.244Z,28.30
2022-12-18T11:25:34.445Z,29.55
2022-12-18T11:26:38.076Z,32.70
2022-12-18T11:27:41.076Z,31.00
2022-12-18T11:29:08.221Z,27.63
2022-12-18T11:30:36.107Z,29.77
2022-12-18T11:31:38.696Z,31.80
2022-12-18T11:32:44.672Z,31.10
2022-12-18T11:34:28.824Z,33.60
2022-12-18T11:35:50.378Z,30.50
2022-12-18T11:36:53.216Z,28.98
2022-12-18T11:38:01.707Z,31.00
2022-12-18T11:39:12.766Z,28.73
2022-12-18T11:40:23.539Z,31.13
2022-12-18T11:42:10.113Z,28.90
2022-12-18T11:43:35.024Z,30.55
2022-12-18T11:44:47.717Z,35.80
2022-12-18T11:45:57.180Z,33.10
2022-12-18T11:47:47.523Z,26.52
2022-12-18T11:48:59.661Z,36.72
2022-12-18T11:50:03.828Z,27.63
2022-12-18T11:51:13.042Z,34.97
2022-12-18T11:52:29.047Z,29.35
2022-12-18T11:53:31.398Z,37.92
2022-12-18T11:54:33.232Z,31.63
2022-12-18T11:55:59.404Z,26.67
2022-12-18T11:57:32.135Z,34.50
2022-12-18T11:58:48.439Z,33.53
2022-12-18T12:00:13.329Z,35.92
2022-12-18T12:01:51.791Z,31.58
2022-12-18T12:03:05.534Z,32.60
2022-12-18T12:04:26.217Z,32.80
2022-12-18T12:05:37.214Z,31.27
2022-12-18T12:06:52.936Z,33.30
2022-12-18T12:08:24.021Z,32.90
2022-12-18T12:09:44.517Z,31.48
2022-12-18T12:11:33.663Z,27.85
2022-12-18T12:12:49.027Z,26.15
2022-12-18T12:13:59.592Z,32.92
2022-12-18T12:15:07.252Z,31.30
2022-12-18T12:16:14.836Z,32.80
2022-12-18T12:17:26.440Z,30.65
2022-12-18T12:19:04.956Z,30.48
2022-12-18T12:20:20.915Z,23.02
2022-12-18T12:21:34.302Z,26.40
2022-12-18T12:22:50.631Z,27.33
2022-12-18T12:24:21.681Z,27.95
2022-12-18T12:25:42.401Z,27.27
2022-12-18T12:27:09.603Z,28.33
2022-12-18T12:28:48.478Z,29.75
2022-12-18T12:30:21.571Z,27.08
2022-12-18T12:31:38.620Z,34.35
2022-12-18T12:33:03.503Z,28.10
2022-12-18T12:34:42.426Z,26.88
2022-12-18T12:35:53.735Z,26.37
2022-12-18T12:37:16.981Z,33.47
2022-12-18T12:38:51.601Z,28.02
2022-12-18T12:39:55.680Z,30.23
2022-12-18T12:41:04.401Z,26.42
2022-12-18T12:42:34.101Z,24.67
2022-12-18T12:43:47.701Z,24.23
2022-12-18T12:44:56.471Z,30.05
2022-12-18T12:46:11.742Z,34.40
2022-12-18T12:47:31.678Z,28.13
2022-12-18T12:48:50.090Z,27.53
2022-12-18T12:49:52.183Z,30.83
2022-12-18T12:50:55.869Z,22.30
2022-12-18T12:52:21.758Z,25.25
2022-12-18T12:53:30.150Z,28.92
2022-12-18T12:54:33.593Z,25.40
2022-12-18T12:55:35.975Z,27.88
2022-12-18T12:57:04.316Z,26.88
2022-12-18T12:58:17.973Z,26.98
2022-12-18T12:59:41.100Z,27.88
2022-12-18T13:00:54.165Z,28.33
2022-12-18T13:02:02.466Z,21.63
2022-12-18T13:03:19.168Z,29.13
2022-12-18T13:04:54.172Z,23.25
2022-12-18T13:06:20.456Z,27.85
2022-12-18T13:07:47.669Z,25.63
2022-12-18T13:09:07.505Z,33.58
2022-12-18T13:10:20.514Z,25.45
2022-12-18T13:11:59.788Z,24.00
2022-12-18T13:13:17.121Z,27.33
2022-12-18T13:14:31.168Z,25.67
2022-12-18T13:15:49.392Z,25.63
2022-12-18T13:16:52.073Z,25.73
2022-12-18T13:18:28.358Z,27.48
2022-12-18T13:19:33.260Z,26.90
2022-12-18T13:20:41.096Z,29.58
2022-12-18T13:21:43.507Z,29.70
2022-12-18T13:22:48.945Z,26.35
2022-12-18T13:23:50.975Z,26.15
2022-12-18T13:24:52.811Z,28.00
2022-12-18T13:25:59.858Z,26.50
2022-12-18T13:27:21.586Z,26.80
2022-12-18T13:28:47.863Z,25.55
2022-12-18T13:29:49.657Z,20.92
2022-12-18T13:30:59.402Z,23.90
2022-12-18T13:32:02.294Z,26.50
2022-12-18T13:33:19.064Z,25.45
2022-12-18T13:34:27.630Z,29.70
2022-12-18T13:35:40.405Z,25.45
2022-12-18T13:36:42.297Z,30.90
2022-12-18T13:37:51.879Z,27.90
2022-12-18T13:39:28.635Z,29.13
2022-12-18T13:40:40.213Z,24.25
2022-12-18T13:41:42.765Z,26.48
2022-12-18T13:43:04.717Z,29.77
2022-12-18T13:44:35.900Z,32.58
2022-12-18T13:45:44.281Z,31.08
2022-12-18T13:46:50.648Z,34.10
2022-12-18T13:47:52.765Z,24.77
2022-12-18T13:49:19.290Z,29.13
2022-12-18T13:50:33.932Z,28.17
2022-12-18T13:51:43.107Z,28.65
2022-12-18T13:52:45.735Z,27.42
2022-12-18T13:53:59.545Z,27.77
2022-12-18T13:55:03.940Z,27.67
2022-12-18T13:56:07.029Z,33.40
2022-12-18T13:57:30.257Z,29.95
2022-12-18T13:58:32.496Z,26.10
2022-12-18T13:59:38.623Z,28.35
2022-12-18T14:00:44.647Z,28.23
2022-12-18T14:02:06.491Z,27.17
2022-12-18T14:03:38.097Z,29.13
2022-12-18T14:04:40.027Z,31.88
2022-12-18T14:05:46.240Z,34.92
2022-12-18T14:06:50.337Z,24.90
2022-12-18T14:07:59.411Z,26.52
2022-12-18T14:09:03.232Z,23.38
2022-12-18T14:10:45.487Z,18.55
2022-12-18T14:11:38.493Z,24.67
2022-12-18T14:13:02.009Z,26.83
2022-12-18T14:14:08.310Z,25.87
2022-12-18T14:15:27.675Z,26.50
2022-12-18T14:16:29.809Z,28.55
2022-12-18T14:17:32.932Z,21.00
2022-12-18T14:18:58.761Z,30.85
2022-12-18T14:20:18.150Z,23.58
2022-12-18T14:21:24.436Z,24.38
2022-12-18T14:22:33.271Z,29.20
2022-12-18T14:23:36.327Z,25.33
2022-12-18T14:24:38.101Z,25.30
2022-12-18T14:25:39.837Z,29.63
2022-12-18T14:26:42.350Z,27.02
2022-12-18T14:27:53.523Z,25.08
2022-12-18T14:29:01.988Z,25.50
2022-12-18T14:30:24.583Z,27.42
2022-12-18T14:31:29.122Z,25.67
2022-12-18T14:32:30.894Z,22.13